Airfield :
LOGIN :

Register | Disclaimer

   EN    FR    IT 

 










Legend :    VFR   Marginal VFR   IFR   Intensive IFR   Very Intensive IFR
Visi :
Ceiling :
>= 8 km
>= 3000ft
5 to 8 km
1000 to 3000 ft
1500m to 5 km
500 to 1000 ft
800 to 1500m
200 to 500 ft
< 800m
< 200 ft
Symbols :   Thunderstorms  Fog  Heavy snow  Heavy precipitations  Wind > 20 kt
SIGMETs :     Misc.  Thunderstorms  Icing  Turbulence  Mountain Waves  Volcanic Ashes






- Airport Elevation : 1202 ft
- IATA code : IGS


ETSI - Ingolstadt

CURRENT METAR :
  • 031920Z AUTO 23003KT 8000 // ////// 20/09 Q1002 ///

EXPIRED METARs :
  • 031820Z AUTO 28006KT 8000 // ////// 22/08 Q1002 ///
  • 031720Z AUTO 29006KT 9999 // ////// 25/05 Q1001 ///

TAF TAF ETSI
Valid from the 03 at 14:00 until the 03 at 23:00 UTC


031315Z 0314/0323 28007KT 9999 NSW FEW050 SCT140 BKN200
PROB30 0314/0317 30015G30KT 5000 TSRA BKN040CB CNL 1400



MET'MAP, your aeronautical weather chart ! - Copyright ORBIFLY December 2007 - Disclaimer

ORBIFLY MET'MAP TEAM :

Programming & Development : Alexandra Zaïnal
Concept & original design : Baudouin d'Aumeries
Assistance for programming : Marc-Olivier Méhu
Technical & hardware support : Manuel Goepfert

Contact : metmap@orbifly.com




SOURCES & CREDITS :

   NOAA